Startpagina
METAR-TAF:

METAR-TAF

Vliegvelden :

Banská Bystrica, Slowakije

breedte: 48-38-17N, lengte: 019-08-03E, hoogte: 318 m

Actueel weer

Dit bericht is 17 minuten geleden gemaakt, om 22:30 UTC
Wind 5 kt uit het oosten, variërend tussen het oostnoordoosten en het oostzuidoosten
Temperatuur 15°C
Vochtigheid 88%
Druk 1020 hPa
Zicht 10 km of meer
geen wolken onder 1500 m en geen cumulonimbus

METAR: LZSL 232230Z 09005KT 060V120 CAVOK 15/13 Q1020

Tijdstip: 00:47 (22:47 UTC)

Verwachting

Dit bericht is 2 uur en het 47 minuten geleden gemaakt, om 20:00 UTC
Verwachting geldig van 23 om 21 UTC tot 24 om 06 UTC
Wind 2 kt uit variabele richting
Zicht 10 km of meer
geen wolken onder 1500 m en geen cumulonimbus
Kans 30%
van 24 om 02 UTC tot 24 om 04 UTC
Wind 4 kt uit het noorden
Zicht: 4000 m
mistbanken

TAF: LZSL 232000Z 2321/2406 VRB02KT CAVOK PROB30 2402/2404 01004KT 4000 BCFG NSC

Waarnemingen en weersverwachtingen van meer dan 4000 vliegvelden (METAR en TAF).

De beschikbare stations zijn de gele en rode punten op de kaart.

Ga met uw muis naar het station om de naam te zien.

Klik dan om waarnemingen en weersverwachtingen te zien.

kaart wijzigen: klik op de groene knoppen met een zwart kruis om in te zoomen, op de groene knop met een streepje om uit te zoomen of op de groene pijlen voor aangrenzende kaarten.


METAR-TAF: